Time;durP1;ratioP1;P1;durP2;ratioP2;P2;SDS_P1;SDS_P2;PMS_P1;PMS_P2;Temp;Humidity;BMP_temperature;BMP_pressure;BME280_temperature;BME280_humidity;BME280_pressure;Samples;Min_cycle;Max_cycle;Signal;HPM_P1;HPM_P2
2023/10/24 00:00:41;;;;;;;10.05;2.20;;;;;;;22.30;51.94;96570.50;5094191;28;20020;-32
2023/10/24 00:03:06;;;;;;;21.75;2.25;;;;;;;22.36;51.62;96574.03;5094587;28;20024;-32
2023/10/24 00:05:32;;;;;;;10.32;1.92;;;;;;;22.30;51.46;96573.25;5094280;28;20027;-32
2023/10/24 00:07:57;;;;;;;10.27;2.42;;;;;;;22.38;51.31;96576.28;5094466;28;20031;-32
2023/10/24 00:10:23;;;;;;;10.48;2.00;;;;;;;22.35;50.78;96575.28;5093936;28;20103;-32
2023/10/24 00:12:49;;;;;;;12.10;2.05;;;;;;;22.26;51.48;96572.75;5094081;28;20055;-32
2023/10/24 00:15:15;;;;;;;14.07;2.13;;;;;;;22.23;51.64;96582.06;5094322;28;20055;-32
2023/10/24 00:17:40;;;;;;;11.98;2.40;;;;;;;22.27;51.29;96579.78;5094682;28;20447;-32
2023/10/24 00:20:07;;;;;;;8.55;1.85;;;;;;;22.46;50.88;96591.88;5094430;28;20016;-32
2023/10/24 00:22:32;;;;;;;9.32;2.17;;;;;;;22.29;51.04;96574.53;5094029;28;20107;-32
2023/10/24 00:24:58;;;;;;;10.18;2.10;;;;;;;22.32;51.02;96576.28;5093666;28;20103;-32
2023/10/24 00:27:23;;;;;;;16.52;3.28;;;;;;;22.31;50.87;96579.53;5093877;28;20027;-32
2023/10/24 00:29:50;;;;;;;15.43;2.95;;;;;;;22.10;51.49;96574.25;5094212;28;20102;-33
2023/10/24 00:32:15;;;;;;;15.65;2.72;;;;;;;22.28;51.00;96564.72;5094236;28;20061;-32
2023/10/24 00:34:41;;;;;;;9.23;2.03;;;;;;;22.35;50.92;96567.00;5093730;28;20020;-31
2023/10/24 00:37:06;;;;;;;7.95;1.60;;;;;;;22.44;50.56;96555.69;5093840;28;20020;-32
2023/10/24 00:39:31;;;;;;;13.77;2.17;;;;;;;22.29;51.12;96566.22;5092561;28;20024;-32
2023/10/24 00:41:57;;;;;;;6.72;1.60;;;;;;;22.43;50.76;96570.00;5093401;28;20027;-32
2023/10/24 00:44:22;;;;;;;8.52;1.67;;;;;;;22.41;50.83;96567.00;5093701;28;20046;-32
2023/10/24 00:46:48;;;;;;;8.98;1.90;;;;;;;22.26;50.59;96560.94;5094108;28;20532;-32
2023/10/24 00:49:14;;;;;;;10.05;1.98;;;;;;;22.37;50.72;96561.72;5100910;28;20069;-31
2023/10/24 00:51:41;;;;;;;9.63;2.42;;;;;;;22.23;50.92;96548.91;5093588;28;20372;-32
2023/10/24 00:54:09;;;;;;;10.10;1.75;;;;;;;22.38;51.05;96540.34;5094803;28;20040;-31
2023/10/24 00:56:35;;;;;;;7.57;1.70;;;;;;;22.25;51.17;96543.63;5097908;28;20020;-32
2023/10/24 00:59:02;;;;;;;9.57;2.50;;;;;;;22.17;51.63;96537.84;5111810;28;20471;-32
2023/10/24 01:01:29;;;;;;;7.63;1.60;;;;;;;22.29;51.31;96533.06;5098018;28;20089;-31
2023/10/24 01:03:56;;;;;;;12.18;2.85;;;;;;;22.43;50.70;96537.59;5097807;28;20016;-32
2023/10/24 01:06:22;;;;;;;9.73;2.00;;;;;;;22.43;50.81;96531.31;5097721;28;20520;-32
2023/10/24 01:08:47;;;;;;;14.55;2.45;;;;;;;22.39;50.86;96525.28;5097629;28;20110;-32
2023/10/24 01:11:13;;;;;;;14.05;2.80;;;;;;;22.42;50.55;96525.03;5097695;28;20016;-32
2023/10/24 01:13:39;;;;;;;9.35;1.83;;;;;;;22.55;50.36;96528.06;5097469;28;20036;-32
2023/10/24 01:16:05;;;;;;;11.57;1.75;;;;;;;22.45;51.09;96523.28;5097933;28;20024;-32
2023/10/24 01:18:30;;;;;;;10.15;1.77;;;;;;;22.54;50.56;96518.25;5098120;28;20023;-32
2023/10/24 01:20:56;;;;;;;10.32;2.13;;;;;;;22.45;50.69;96512.22;5097127;28;20407;-32
2023/10/24 01:23:21;;;;;;;9.32;2.17;;;;;;;22.45;50.66;96504.69;5097404;28;20386;-32
2023/10/24 01:25:50;;;;;;;12.40;1.98;;;;;;;22.53;50.51;96508.44;5097618;28;20352;-32
2023/10/24 01:28:17;;;;;;;10.10;2.13;;;;;;;22.31;51.01;96510.47;5104492;28;20019;-32
2023/10/24 01:30:43;;;;;;;8.70;1.92;;;;;;;22.44;51.07;96505.94;5097091;28;20471;-32
2023/10/24 01:33:08;;;;;;;14.85;2.65;;;;;;;22.35;50.90;96503.44;5097014;28;20020;-32
2023/10/24 01:35:34;;;;;;;7.82;1.80;;;;;;;22.41;50.83;96506.94;5097162;28;20032;-32
2023/10/24 01:37:59;;;;;;;9.23;1.98;;;;;;;22.49;50.53;96505.22;5097297;28;20401;-31
2023/10/24 01:40:25;;;;;;;11.48;2.00;;;;;;;22.61;50.49;96502.44;5097165;28;20042;-32
2023/10/24 01:42:50;;;;;;;11.98;1.80;;;;;;;22.59;50.41;96505.69;5103942;28;20012;-32
2023/10/24 01:45:16;;;;;;;11.85;2.45;;;;;;;22.47;50.94;96504.94;5096983;28;20027;-31
2023/10/24 01:47:42;;;;;;;10.60;2.47;;;;;;;22.50;50.72;96498.41;5096947;28;20031;-33
2023/10/24 01:50:08;;;;;;;9.50;2.10;;;;;;;22.43;51.07;96498.16;5096961;28;20093;-32
2023/10/24 01:52:34;;;;;;;6.65;1.38;;;;;;;22.46;50.74;96491.63;5096475;28;20028;-32
2023/10/24 01:54:59;;;;;;;14.32;1.65;;;;;;;22.27;51.37;96488.63;5104704;28;20012;-32
2023/10/24 01:57:25;;;;;;;12.05;2.25;;;;;;;22.58;50.53;96488.34;5096783;28;20407;-32
2023/10/24 01:59:50;;;;;;;10.07;1.60;;;;;;;22.46;50.91;96486.88;5096741;28;20081;-32
2023/10/24 02:02:16;;;;;;;10.77;1.67;;;;;;;22.51;50.78;96488.84;5096814;28;20059;-32
2023/10/24 02:04:41;;;;;;;13.88;2.20;;;;;;;22.36;51.06;96482.84;5096720;28;20385;-31
2023/10/24 02:07:07;;;;;;;10.63;2.05;;;;;;;22.32;51.34;96476.06;5096149;28;20446;-32
2023/10/24 02:09:33;;;;;;;9.88;1.95;;;;;;;22.28;51.55;96476.31;5096102;28;20023;-33
2023/10/24 02:12:00;;;;;;;13.13;2.03;;;;;;;22.47;51.21;96471.78;5096843;28;20020;-32
2023/10/24 02:14:25;;;;;;;8.98;1.88;;;;;;;22.36;51.12;96477.34;5096467;28;20020;-32
2023/10/24 02:16:51;;;;;;;9.98;1.95;;;;;;;22.52;50.64;96473.03;5096346;28;20028;-32
2023/10/24 02:19:16;;;;;;;11.05;2.33;;;;;;;22.21;51.52;96474.06;5096900;28;20031;-32
2023/10/24 02:21:42;;;;;;;7.47;1.90;;;;;;;22.14;51.98;96466.25;5095852;28;20028;-32
2023/10/24 02:24:07;;;;;;;18.33;2.72;;;;;;;22.29;51.32;96461.25;5095300;28;20031;-32
2023/10/24 02:26:33;;;;;;;11.52;1.95;;;;;;;22.24;51.46;96458.50;5096009;28;20016;-32
2023/10/24 02:28:58;;;;;;;9.63;1.55;;;;;;;22.28;51.51;96456.97;5096098;28;20483;-32
2023/10/24 02:31:24;;;;;;;15.60;2.67;;;;;;;22.27;51.23;96458.22;5096416;28;20022;-32
2023/10/24 02:33:49;;;;;;;6.13;1.83;;;;;;;22.30;51.53;96443.41;5096005;28;20028;-32
2023/10/24 02:36:15;;;;;;;7.43;1.85;;;;;;;22.27;51.63;96444.41;5096220;28;20031;-31
2023/10/24 02:38:41;;;;;;;10.18;2.03;;;;;;;22.19;52.09;96435.13;5096116;28;20020;-32
2023/10/24 02:41:07;;;;;;;11.23;1.92;;;;;;;22.25;51.80;96422.09;5095756;28;20361;-32
2023/10/24 02:43:32;;;;;;;12.43;2.20;;;;;;;22.34;52.21;96429.34;5095918;28;20024;-32
2023/10/24 02:46:03;;;;;;;11.15;1.60;;;;;;;22.19;52.56;96429.63;5095523;28;20023;-32
2023/10/24 02:48:28;;;;;;;9.60;1.85;;;;;;;22.36;51.87;96424.06;5095974;28;20019;-32
2023/10/24 02:50:54;;;;;;;9.20;2.45;;;;;;;22.17;52.53;96426.59;5095906;28;20016;-32
2023/10/24 02:53:20;;;;;;;9.02;1.98;;;;;;;22.26;51.82;96433.88;5095500;28;20040;-31
2023/10/24 02:55:47;;;;;;;14.55;2.88;;;;;;;22.30;51.60;96429.59;5095381;28;20020;-32
2023/10/24 02:58:13;;;;;;;11.20;2.13;;;;;;;22.29;51.60;96430.09;5095648;28;20374;-32
2023/10/24 03:00:38;;;;;;;9.73;1.92;;;;;;;22.14;52.13;96433.13;5095535;28;20020;-32
2023/10/24 03:03:04;;;;;;;7.38;2.10;;;;;;;22.35;51.98;96423.31;5095467;28;20019;-31
2023/10/24 03:05:29;;;;;;;10.82;2.40;;;;;;;22.32;51.77;96424.31;5095490;28;20090;-32
2023/10/24 03:07:55;;;;;;;11.10;1.63;;;;;;;22.21;52.43;96416.81;5095614;28;20371;-31
2023/10/24 03:10:20;;;;;;;9.40;2.03;;;;;;;22.19;52.48;96413.03;5095339;28;20086;-32
2023/10/24 03:12:46;;;;;;;8.23;2.08;;;;;;;22.13;52.22;96421.31;5095339;28;20021;-32
2023/10/24 03:15:11;;;;;;;9.63;1.77;;;;;;;22.22;52.27;96423.09;5093767;28;20027;-32
2023/10/24 03:17:37;;;;;;;14.27;2.25;;;;;;;22.30;51.78;96418.56;5094828;28;20026;-32
2023/10/24 03:20:04;;;;;;;11.85;1.65;;;;;;;22.20;52.25;96415.31;5102337;28;20467;-32
2023/10/24 03:22:30;;;;;;;10.63;1.80;;;;;;;22.36;51.52;96415.78;5094908;28;20024;-32
2023/10/24 03:24:56;;;;;;;8.60;1.48;;;;;;;22.19;51.88;96416.56;5094985;28;20020;-32
2023/10/24 03:27:21;;;;;;;7.72;2.00;;;;;;;22.18;51.67;96414.28;5095089;28;20758;-31
2023/10/24 03:29:47;;;;;;;11.80;2.28;;;;;;;22.26;51.58;96418.03;5095284;28;20055;-32
2023/10/24 03:32:13;;;;;;;13.63;2.45;;;;;;;22.38;51.78;96418.78;5094701;28;20023;-32
2023/10/24 03:34:39;;;;;;;11.65;1.60;;;;;;;22.24;52.01;96406.75;5102518;28;20031;-32
2023/10/24 03:37:04;;;;;;;8.27;2.10;;;;;;;22.07;52.80;96406.78;5094633;28;20024;-32
2023/10/24 03:39:30;;;;;;;11.40;1.92;;;;;;;22.35;51.87;96398.47;5094977;28;20035;-32
2023/10/24 03:41:55;;;;;;;17.10;2.30;;;;;;;22.24;52.12;96376.38;5094627;28;20042;-31
2023/10/24 03:44:24;;;;;;;8.93;1.90;;;;;;;22.28;51.86;96376.09;5094565;28;20485;-32
2023/10/24 03:46:50;;;;;;;10.63;2.15;;;;;;;22.26;52.06;96371.06;5109478;28;20020;-32
2023/10/24 03:49:16;;;;;;;13.35;2.90;;;;;;;22.33;51.50;96367.81;5094359;28;20506;-31
2023/10/24 03:51:43;;;;;;;13.40;2.08;;;;;;;22.19;52.16;96377.13;5094604;28;20047;-31
2023/10/24 03:54:09;;;;;;;11.82;2.28;;;;;;;22.34;51.72;96385.16;5094064;28;20048;-32
2023/10/24 03:56:35;;;;;;;7.78;2.08;;;;;;;22.28;51.83;96379.63;5094635;28;20024;-32
2023/10/24 03:59:01;;;;;;;8.18;1.88;;;;;;;22.26;51.95;96384.13;5104326;28;20027;-31
2023/10/24 04:01:26;;;;;;;7.47;2.35;;;;;;;22.15;52.60;96387.66;5098818;28;20028;-32
2023/10/24 04:03:52;;;;;;;12.00;2.08;;;;;;;22.07;53.12;96378.41;5094753;28;20052;-32
2023/10/24 04:06:18;;;;;;;11.65;1.88;;;;;;;22.13;52.82;96382.66;5094366;28;20016;-33
2023/10/24 04:08:44;;;;;;;10.07;2.20;;;;;;;22.21;53.09;96358.03;5094014;28;20082;-32
2023/10/24 04:11:16;;;;;;;10.35;1.90;;;;;;;22.26;52.59;96356.50;5094301;28;20123;-32
2023/10/24 04:13:43;;;;;;;13.70;2.10;;;;;;;22.12;53.00;96352.78;5094136;28;20024;-32
2023/10/24 04:16:08;;;;;;;7.75;1.80;;;;;;;22.26;52.17;96328.88;5094492;28;20030;-31
2023/10/24 04:18:34;;;;;;;8.30;1.80;;;;;;;22.05;52.68;96325.69;5094589;28;20426;-32
2023/10/24 04:20:59;;;;;;;13.85;2.63;;;;;;;22.11;52.80;96326.44;5093922;28;20016;-32
2023/10/24 04:23:31;;;;;;;10.30;1.88;;;;;;;22.32;51.79;96326.88;5092567;28;20093;-32
2023/10/24 04:25:57;;;;;;;8.57;1.75;;;;;;;22.26;51.83;96318.59;5093758;28;20099;-32
2023/10/24 04:28:22;;;;;;;10.32;2.53;;;;;;;22.02;52.73;96299.81;5094141;28;20070;-32
2023/10/24 04:30:48;;;;;;;10.75;2.35;;;;;;;21.80;53.48;96283.28;5093709;28;20583;-32
2023/10/24 04:33:14;;;;;;;12.10;2.20;;;;;;;22.13;52.80;96260.41;5094622;28;20076;-32
2023/10/24 04:35:47;;;;;;;12.57;2.40;;;;;;;22.16;52.89;96253.84;5093712;28;20070;-32
2023/10/24 04:38:14;;;;;;;10.32;2.47;;;;;;;22.11;52.93;96254.63;5093839;28;20391;-31
2023/10/24 04:40:39;;;;;;;12.68;2.33;;;;;;;22.10;52.69;96253.88;5093843;28;20024;-32
2023/10/24 04:43:09;;;;;;;18.92;2.63;;;;;;;22.24;52.56;96246.53;5093891;28;20023;-31
2023/10/24 04:45:36;;;;;;;9.70;1.73;;;;;;;22.01;52.79;96234.81;5093951;28;20059;-32
2023/10/24 04:48:02;;;;;;;7.10;1.95;;;;;;;21.97;53.19;96219.75;5093404;28;20027;-31
2023/10/24 04:50:28;;;;;;;12.88;1.92;;;;;;;21.96;53.29;96223.75;5093634;28;20043;-32
2023/10/24 04:52:54;;;;;;;10.10;2.00;;;;;;;21.95;52.59;96216.72;5093433;28;20075;-32
2023/10/24 04:55:20;;;;;;;9.93;2.25;;;;;;;21.91;53.09;96213.47;5093917;28;20028;-32
2023/10/24 04:57:46;;;;;;;8.32;2.08;;;;;;;22.02;52.96;96221.75;5094145;28;20039;-32
2023/10/24 05:00:12;;;;;;;8.00;1.77;;;;;;;22.03;52.43;96217.72;5094056;28;20028;-32
2023/10/24 05:02:43;;;;;;;9.00;2.00;;;;;;;21.96;52.47;96219.00;5093337;28;20031;-32
2023/10/24 05:05:09;;;;;;;10.38;1.65;;;;;;;21.99;52.20;96201.44;5100977;28;20016;-33
2023/10/24 05:07:35;;;;;;;7.75;1.90;;;;;;;22.15;51.99;96206.13;5093384;28;20038;-32
2023/10/24 05:10:01;;;;;;;13.32;1.83;;;;;;;21.93;52.96;96199.91;5093904;28;20468;-33
2023/10/24 05:12:26;;;;;;;9.15;2.10;;;;;;;22.12;51.68;96198.13;5093615;28;20522;-31
2023/10/24 05:14:52;;;;;;;7.88;2.15;;;;;;;21.91;51.66;96194.16;5093457;28;20024;-32
2023/10/24 05:17:17;;;;;;;10.98;1.70;;;;;;;22.02;51.91;96199.66;5093730;28;20015;-32
2023/10/24 05:19:43;;;;;;;12.00;1.75;;;;;;;22.00;52.00;96191.16;5093205;28;20060;-33
2023/10/24 05:22:10;;;;;;;14.27;2.05;;;;;;;22.01;50.86;96176.81;5093087;28;20096;-32
2023/10/24 05:24:37;;;;;;;9.73;2.08;;;;;;;22.05;51.07;96176.56;5097191;28;20027;-32
2023/10/24 05:27:03;;;;;;;7.88;1.95;;;;;;;22.15;50.46;96177.75;5096207;28;20020;-33
2023/10/24 05:29:29;;;;;;;11.18;2.17;;;;;;;22.04;51.35;96175.06;5093873;28;20028;-32
2023/10/24 05:31:54;;;;;;;7.38;1.80;;;;;;;22.01;50.96;96167.78;5093383;28;20028;-33
2023/10/24 05:34:19;;;;;;;9.10;1.70;;;;;;;22.20;50.46;96165.94;5093495;28;20024;-32
2023/10/24 05:36:45;;;;;;;11.30;2.05;;;;;;;21.94;51.09;96166.28;5093407;28;20111;-32
2023/10/24 05:39:10;;;;;;;9.75;1.92;;;;;;;22.04;50.89;96175.81;5093547;28;20016;-32
2023/10/24 05:41:37;;;;;;;11.65;1.70;;;;;;;22.01;50.83;96170.53;5102625;28;20063;-32
2023/10/24 05:44:03;;;;;;;8.20;1.90;;;;;;;21.88;51.97;96175.84;5096752;28;20016;-31
2023/10/24 05:46:29;;;;;;;8.27;2.40;;;;;;;21.87;51.82;96177.88;5096931;28;20099;-32
2023/10/24 05:48:54;;;;;;;12.15;2.08;;;;;;;21.99;51.03;96178.59;5096735;28;20028;-32
2023/10/24 05:51:28;;;;;;;12.48;2.05;;;;;;;22.11;51.16;96191.09;5097058;28;20352;-32
2023/10/24 05:53:53;;;;;;;6.78;1.58;;;;;;;22.06;51.07;96205.69;5099844;28;20071;-33
2023/10/24 05:56:19;;;;;;;13.77;2.90;;;;;;;21.98;50.92;96204.69;5101488;28;20104;-32
2023/10/24 05:58:45;;;;;;;9.45;2.72;;;;;;;21.93;51.64;96219.25;5097580;28;20063;-32
2023/10/24 06:01:10;;;;;;;13.93;2.70;;;;;;;22.10;51.30;96212.44;5096607;28;20471;-31
2023/10/24 06:03:36;;;;;;;10.48;2.90;;;;;;;22.10;51.15;96206.19;5096642;28;20483;-33
2023/10/24 06:06:01;;;;;;;14.13;2.60;;;;;;;22.08;51.35;96197.63;5096721;28;20420;-32
2023/10/24 06:08:27;;;;;;;17.52;2.42;;;;;;;22.11;51.22;96207.69;5096697;28;20016;-32
2023/10/24 06:11:01;;;;;;;8.68;2.33;;;;;;;21.97;51.15;96181.09;5096475;28;20364;-32
2023/10/24 06:13:27;;;;;;;16.05;2.38;;;;;;;22.02;51.42;96172.03;5096171;28;20055;-32
2023/10/24 06:15:53;;;;;;;9.05;2.00;;;;;;;22.03;49.89;96185.34;5096207;28;20025;-33
2023/10/24 06:18:19;;;;;;;12.85;2.28;;;;;;;21.96;50.18;96196.16;5096144;27;20078;-32
2023/10/24 06:20:46;;;;;;;16.38;2.63;;;;;;;22.03;49.65;96196.41;5096806;28;20103;-32
2023/10/24 06:23:12;;;;;;;8.40;1.80;;;;;;;21.83;49.50;96178.13;5096553;28;20047;-32
2023/10/24 06:25:39;;;;;;;6.72;1.73;;;;;;;21.97;49.18;96187.38;5096537;28;20020;-32
2023/10/24 06:28:05;;;;;;;20.40;3.60;;;;;;;21.88;49.69;96190.41;5096234;28;20107;-32
2023/10/24 06:30:31;;;;;;;12.48;2.17;;;;;;;22.06;49.06;96206.44;5096097;28;20103;-32
2023/10/24 06:32:56;;;;;;;13.13;2.30;;;;;;;21.93;48.89;96203.44;5095024;28;20016;-32
2023/10/24 06:35:22;;;;;;;16.15;2.75;;;;;;;21.89;49.10;96205.69;5095992;28;20097;-32
2023/10/24 06:37:47;;;;;;;14.93;2.50;;;;;;;21.92;48.78;96201.94;5096425;28;20020;-32
2023/10/24 06:40:13;;;;;;;12.57;2.45;;;;;;;22.03;48.68;96231.53;5096383;28;20433;-31
2023/10/24 06:42:39;;;;;;;12.15;1.90;;;;;;;21.93;48.95;96266.19;5095580;28;20043;-32
2023/10/24 06:45:06;;;;;;;14.30;2.20;;;;;;;22.08;48.62;96250.13;5095817;28;20020;-31
2023/10/24 06:47:31;;;;;;;19.45;3.15;;;;;;;21.98;49.23;96237.81;5095786;28;20016;-32
2023/10/24 06:49:57;;;;;;;14.75;2.72;;;;;;;22.05;49.66;96229.03;5096007;28;20077;-32
2023/10/24 06:52:22;;;;;;;16.73;2.63;;;;;;;22.11;49.66;96247.09;5095506;28;20016;-32
2023/10/24 06:54:48;;;;;;;16.33;2.85;;;;;;;22.15;49.27;96233.75;5095893;28;20028;-32
2023/10/24 06:57:13;;;;;;;14.05;3.38;;;;;;;22.15;49.44;96253.09;5095630;28;20394;-32
2023/10/24 06:59:39;;;;;;;13.77;2.05;;;;;;;22.12;49.53;96265.16;5096061;28;20345;-32
2023/10/24 07:02:04;;;;;;;14.07;2.08;;;;;;;22.12;49.86;96256.13;5095382;28;20020;-31
2023/10/24 07:04:30;;;;;;;13.00;3.05;;;;;;;21.96;50.06;96240.31;5095660;28;20020;-31
2023/10/24 07:06:55;;;;;;;11.25;2.17;;;;;;;21.88;50.18;96251.88;5095367;28;20081;-32
2023/10/24 07:09:21;;;;;;;12.23;2.05;;;;;;;22.10;49.72;96261.41;5095140;28;20429;-32
2023/10/24 07:11:46;;;;;;;14.68;2.88;;;;;;;21.95;49.84;96278.22;5095154;28;20081;-32
2023/10/24 07:14:12;;;;;;;10.77;1.85;;;;;;;21.92;49.98;96278.47;5095121;28;20082;-32
2023/10/24 07:16:38;;;;;;;18.95;2.72;;;;;;;21.88;49.64;96273.97;5095605;28;20020;-32
2023/10/24 07:19:03;;;;;;;15.63;2.95;;;;;;;22.00;49.37;96285.78;5095360;28;20043;-33
2023/10/24 07:21:29;;;;;;;15.27;2.17;;;;;;;22.02;48.87;96299.81;5101976;28;20054;-32
2023/10/24 07:23:56;;;;;;;13.50;2.67;;;;;;;21.96;48.49;96295.56;5095102;28;20039;-32
2023/10/24 07:26:21;;;;;;;13.38;2.15;;;;;;;21.90;48.57;96298.31;5095072;28;20023;-32
2023/10/24 07:28:47;;;;;;;20.52;2.65;;;;;;;21.82;48.66;96311.88;5094820;28;20533;-32
2023/10/24 07:31:12;;;;;;;15.65;2.15;;;;;;;21.90;48.60;96311.34;5095432;28;20031;-32
2023/10/24 07:33:38;;;;;;;14.10;2.40;;;;;;;22.06;48.54;96327.19;5102457;28;20495;-32
2023/10/24 07:36:05;;;;;;;18.15;2.55;;;;;;;22.02;48.41;96321.16;5101637;28;20102;-32
2023/10/24 07:38:31;;;;;;;11.95;2.20;;;;;;;22.03;48.55;96326.19;5095444;28;20023;-32
2023/10/24 07:40:56;;;;;;;16.40;2.50;;;;;;;22.06;48.25;96324.41;5094386;28;20016;-32
2023/10/24 07:43:21;;;;;;;13.88;2.60;;;;;;;22.01;48.19;96311.38;5094539;28;20493;-32
2023/10/24 07:45:51;;;;;;;14.45;1.85;;;;;;;21.96;48.68;96298.31;5097120;28;20051;-31
2023/10/24 07:48:17;;;;;;;15.63;2.10;;;;;;;22.02;49.05;96301.81;5098874;28;20055;-32
2023/10/24 07:50:55;;;;;;;10.82;1.83;;;;;;;22.13;48.56;96296.31;5094965;28;20062;-32
2023/10/24 07:53:22;;;;;;;13.10;2.55;;;;;;;22.03;49.15;96301.31;5094373;28;20502;-32
2023/10/24 07:55:48;;;;;;;11.90;2.65;;;;;;;21.97;49.60;96294.28;5094540;28;20425;-31
2023/10/24 07:58:17;;;;;;;13.82;3.05;;;;;;;22.17;49.24;96285.72;5094307;28;20383;-32
2023/10/24 08:00:47;;;;;;;12.50;2.00;;;;;;;22.00;49.58;96274.00;5101386;28;20073;-32
2023/10/24 08:03:13;;;;;;;16.23;2.15;;;;;;;22.09;49.21;96271.69;5094108;28;20059;-31
2023/10/24 08:05:39;;;;;;;8.77;3.08;;;;;;;22.12;49.45;96258.91;5094330;28;20107;-32
2023/10/24 08:08:05;;;;;;;22.00;2.20;;;;;;;21.96;49.61;96256.91;5092889;28;20596;-32
2023/10/24 08:10:34;;;;;;;18.38;2.75;;;;;;;22.12;49.63;96256.13;5094130;28;20099;-32
2023/10/24 08:13:00;;;;;;;19.20;2.40;;;;;;;22.12;49.39;96251.38;5094303;28;20031;-32
2023/10/24 08:15:27;;;;;;;9.43;1.90;;;;;;;21.94;49.96;96229.03;5092998;28;20018;-32
2023/10/24 08:17:52;;;;;;;14.43;2.63;;;;;;;22.05;49.23;96210.44;5093777;28;20437;-32
2023/10/24 08:20:19;;;;;;;19.60;2.47;;;;;;;22.19;49.33;96208.63;5094533;28;20098;-32
2023/10/24 08:22:44;;;;;;;11.88;2.60;;;;;;;21.98;49.54;96210.22;5093739;28;20032;-32
2023/10/24 08:25:10;;;;;;;17.38;2.70;;;;;;;22.06;49.31;96211.94;5094181;28;20371;-32
2023/10/24 08:27:35;;;;;;;17.10;2.92;;;;;;;21.88;49.90;96215.97;5093865;28;20024;-34
2023/10/24 08:30:06;;;;;;;15.70;3.05;;;;;;;22.00;49.73;96216.75;5094239;28;20020;-32
2023/10/24 08:32:32;;;;;;;13.30;1.95;;;;;;;21.98;49.89;96224.00;5094753;28;20479;-32
2023/10/24 08:34:57;;;;;;;18.67;2.33;;;;;;;22.13;49.85;96235.53;5093966;28;20032;-32
2023/10/24 08:37:23;;;;;;;8.32;2.10;;;;;;;22.14;50.46;96231.50;5093696;28;20020;-32
2023/10/24 08:39:49;;;;;;;8.68;1.83;;;;;;;22.25;50.50;96225.94;5093821;28;20072;-32
2023/10/24 08:42:15;;;;;;;14.35;2.28;;;;;;;21.98;51.86;96240.56;5093863;28;20043;-32
2023/10/24 08:44:41;;;;;;;18.92;2.42;;;;;;;22.24;51.30;96229.97;5094006;28;20043;-32
2023/10/24 08:47:08;;;;;;;14.15;2.58;;;;;;;22.15;51.68;96252.34;5093838;28;20483;-32
2023/10/24 08:49:36;;;;;;;19.75;2.05;;;;;;;22.29;51.76;96259.56;5093674;28;20024;-32
2023/10/24 08:52:02;;;;;;;24.35;2.40;;;;;;;22.29;52.44;96253.28;5093596;28;20015;-31
2023/10/24 08:54:28;;;;;;;13.43;2.45;;;;;;;22.25;52.89;96245.28;5093677;28;20115;-32
2023/10/24 08:56:54;;;;;;;23.17;2.60;;;;;;;22.02;53.90;96241.06;5093617;28;20113;-32
2023/10/24 08:59:20;;;;;;;17.92;2.47;;;;;;;22.25;53.42;96244.53;5094335;28;20110;-32
2023/10/24 09:01:48;;;;;;;15.30;2.67;;;;;;;22.36;53.49;96250.00;5100699;28;20352;-32
2023/10/24 09:04:15;;;;;;;17.10;2.65;;;;;;;22.14;54.46;96226.72;5093415;28;20349;-32
2023/10/24 09:06:40;;;;;;;8.05;2.00;;;;;;;22.21;54.43;96240.03;5093351;28;20031;-32
2023/10/24 09:09:06;;;;;;;10.73;3.05;;;;;;;22.15;54.86;96247.56;5093373;28;20110;-32
2023/10/24 09:11:55;;;;;;;13.95;2.63;;;;;;;22.06;56.20;96241.56;5093664;28;20023;-33
2023/10/24 09:14:21;;;;;;;17.10;2.60;;;;;;;21.99;56.67;96231.81;5096609;28;20019;-32
2023/10/24 09:16:55;;;;;;;13.55;2.67;;;;;;;22.29;55.72;96248.53;5099842;28;20039;-32
2023/10/24 09:19:21;;;;;;;12.25;2.75;;;;;;;22.04;56.78;96241.31;5097444;28;20204;-32
2023/10/24 09:21:49;;;;;;;18.00;3.20;;;;;;;22.33;55.97;96240.72;5097482;28;20051;-32
2023/10/24 09:24:15;;;;;;;21.35;3.03;;;;;;;22.29;56.12;96242.25;5098442;28;20020;-32
2023/10/24 09:26:48;;;;;;;14.65;3.45;;;;;;;22.36;55.89;96242.47;5103417;28;20028;-32
2023/10/24 09:29:14;;;;;;;24.80;4.07;;;;;;;22.23;56.55;96228.47;5104656;28;20032;-32
2023/10/24 09:31:39;;;;;;;13.65;3.70;;;;;;;22.26;56.89;96219.16;5095720;28;20038;-32
2023/10/24 09:34:05;;;;;;;16.80;4.25;;;;;;;22.17;57.21;96238.78;5097227;28;20024;-32
2023/10/24 09:36:30;;;;;;;13.98;3.80;;;;;;;22.41;56.15;96225.09;5097173;28;20475;-33
2023/10/24 09:38:55;;;;;;;11.38;4.40;;;;;;;22.29;57.81;96245.00;5097006;28;20111;-32
2023/10/24 09:41:21;;;;;;;21.70;4.20;;;;;;;22.22;57.99;96246.31;5104350;28;20064;-32
2023/10/24 09:43:48;;;;;;;16.77;3.55;;;;;;;22.34;57.64;96231.19;5099589;28;20477;-32
2023/10/24 09:46:22;;;;;;;12.35;3.20;;;;;;;22.18;58.58;96229.22;5101055;28;20020;-32
2023/10/24 09:48:49;;;;;;;20.92;3.40;;;;;;;22.33;58.28;96228.94;5097469;28;20089;-32
2023/10/24 09:51:19;;;;;;;11.35;3.08;;;;;;;22.47;57.67;96238.91;5096913;28;20050;-33
2023/10/24 09:53:45;;;;;;;14.80;3.70;;;;;;;22.40;56.73;96233.91;5097242;28;20052;-32
2023/10/24 09:56:12;;;;;;;20.55;3.75;;;;;;;22.47;57.08;96216.81;5096736;28;20069;-32
2023/10/24 09:58:41;;;;;;;16.27;3.47;;;;;;;22.26;58.89;96202.56;5097458;28;20024;-32
2023/10/24 10:01:08;;;;;;;17.20;3.00;;;;;;;22.42;58.44;96198.97;5096491;28;20024;-32
2023/10/24 10:03:34;;;;;;;10.73;2.70;;;;;;;22.48;56.89;96193.44;5096653;28;20435;-32
2023/10/24 10:06:05;;;;;;;12.70;2.85;;;;;;;22.47;58.38;96200.22;5096586;28;20038;-32
2023/10/24 10:08:35;;;;;;;21.35;3.38;;;;;;;22.36;59.06;96186.47;5096365;28;20012;-32
2023/10/24 10:11:01;;;;;;;18.17;3.33;;;;;;;22.34;59.24;96184.22;5096525;28;20607;-33
2023/10/24 10:13:30;;;;;;;21.92;4.25;;;;;;;22.30;60.17;96191.25;5096318;28;20483;-32
2023/10/24 10:16:04;;;;;;;24.30;3.92;;;;;;;22.36;60.01;96181.69;5096473;28;20047;-32
2023/10/24 10:18:39;;;;;;;23.13;4.05;;;;;;;22.12;61.31;96168.50;5096365;28;20055;-32
2023/10/24 10:21:13;;;;;;;17.20;3.20;;;;;;;22.38;59.70;96172.88;5096278;28;20031;-32
2023/10/24 10:24:06;;;;;;;19.83;3.22;;;;;;;22.46;59.44;96166.31;5096731;28;20099;-32
2023/10/24 10:26:50;;;;;;;17.27;3.47;;;;;;;22.45;59.34;96153.75;5095805;28;20475;-32
2023/10/24 10:29:29;;;;;;;14.70;2.95;;;;;;;22.43;60.12;96123.13;5096079;28;20028;-32
2023/10/24 10:32:16;;;;;;;13.30;2.67;;;;;;;22.21;61.61;96120.50;5096130;28;20120;-32
2023/10/24 10:34:43;;;;;;;18.45;3.65;;;;;;;22.37;61.96;96107.84;5096353;28;20032;-32
2023/10/24 10:37:09;;;;;;;20.17;3.88;;;;;;;22.43;61.63;96098.25;5096311;28;20028;-32
2023/10/24 10:39:35;;;;;;;23.13;4.05;;;;;;;22.54;61.31;96078.81;5097609;28;21035;-32
2023/10/24 10:42:00;;;;;;;11.23;3.03;;;;;;;22.52;60.96;96062.00;5101880;28;20114;-32
2023/10/24 10:44:38;;;;;;;18.65;4.55;;;;;;;22.52;61.08;96064.00;5094634;28;20020;-32
2023/10/24 10:47:06;;;;;;;19.60;4.70;;;;;;;22.48;61.19;96064.31;5095939;28;20102;-32
2023/10/24 10:49:59;;;;;;;26.55;4.10;;;;;;;22.54;61.08;96078.81;5095957;28;20047;-34
2023/10/24 10:52:42;;;;;;;24.00;3.20;;;;;;;22.41;61.78;96075.91;5094507;28;20144;-31
2023/10/24 10:55:13;;;;;;;18.70;3.92;;;;;;;22.54;61.15;96073.28;5095477;28;20025;-32
2023/10/24 10:58:05;;;;;;;18.52;3.38;;;;;;;22.44;62.02;96063.06;5095817;28;20028;-32
2023/10/24 11:00:54;;;;;;;19.63;3.97;;;;;;;22.50;62.50;96078.34;5093968;28;20027;-32
2023/10/24 11:03:19;;;;;;;20.80;3.45;;;;;;;22.17;64.02;96079.31;5101032;28;20608;-32
2023/10/24 11:05:49;;;;;;;19.38;3.90;;;;;;;22.67;62.19;96080.22;5095260;28;20033;-32
2023/10/24 11:08:20;;;;;;;34.70;3.90;;;;;;;22.51;62.82;96068.78;5095370;28;20016;-32
2023/10/24 11:10:57;;;;;;;25.35;4.10;;;;;;;22.30;64.80;96078.75;5095699;28;20034;-33
2023/10/24 11:13:32;;;;;;;24.98;3.53;;;;;;;22.41;63.86;96064.84;5095388;28;20023;-32
2023/10/24 11:16:00;;;;;;;20.02;5.32;;;;;;;22.61;62.55;96066.47;5095253;28;20032;-32
2023/10/24 11:18:26;;;;;;;20.02;3.60;;;;;;;22.74;62.92;96057.56;5095249;28;20020;-32
2023/10/24 11:20:53;;;;;;;26.38;3.85;;;;;;;22.84;62.64;96042.19;5095399;28;20111;-32
2023/10/24 11:23:18;;;;;;;23.55;3.95;;;;;;;22.78;63.52;96050.50;5102563;28;20080;-31
2023/10/24 11:25:44;;;;;;;28.30;5.35;;;;;;;22.32;67.25;96045.09;5094968;28;20024;-32